»·PEaware :: DFGCW KTIF-KAFF

DFGCW :: KTIF-KAFF

FLIGHT INFORMATION

Flight Status: Arrived
Operator: Unknown
More flights by this operator :: More flights under this callsign
Pilot: Klaus A. (15485)
Aircraft: PILATUS PC-12 EAGLE
(PC12)
More flights by this aircraft type
Origin: KTIF Thomas Co
United States
Destination: KAFF USAF Academy
United States
More flights between these airports :: More routes between these airports
Route: SNY J114 DVV FQF
File this flight plan on PilotEdge
Remarks: PBN / D2 DOF / 181020 REG / DFGCW PER / B RMK / TCAS SIMBRIEF
Altitude:
(Current/Filed)
26,000ft
Speed:
(Current/Filed)
277kts
Departed: 20-Oct-18 08:47 AM
Arrived: 20-Oct-18 10:03 AM
Distance/Time
Traveled:
264nm/1:15
Distance/Time
To Go:
Arrived

Flight Plot

Page will automatically refresh every two minutes.

Flight plan parsing failed; only flown route is shown


Map Options




Map Legend


Flown Route
Filed Route
Departure Airport
Arrival Airport
Navaid (VOR, NDB)
Fix

Horizontal Profiles

Position Reports

Time Latitude Longitude Heading Altitude Ground
Speed
20-Oct-18 08:37 41.963691 -100.568201 118 2932ft 0kts
20-Oct-18 08:38 41.963691 -100.568201 118 2932ft 0kts
20-Oct-18 08:39 41.963691 -100.568201 118 2932ft 0kts
20-Oct-18 08:40 41.963691 -100.568201 118 2932ft 0kts
20-Oct-18 08:41 41.963691 -100.568201 118 2932ft 0kts
20-Oct-18 08:42 41.963691 -100.568201 118 2932ft 0kts
20-Oct-18 08:43 41.963691 -100.568201 118 2932ft 0kts
20-Oct-18 08:44 41.963691 -100.568201 118 2932ft 0kts
20-Oct-18 08:45 41.963691 -100.568201 118 2932ft 0kts
20-Oct-18 08:46 41.962986 -100.567781 204 2932ft 9kts
20-Oct-18 08:47 41.962101 -100.568784 293 2931ft 0kts
20-Oct-18 08:48 41.962101 -100.568784 293 2931ft 0kts
20-Oct-18 08:49 41.963444 -100.572118 299 2932ft 83kts
20-Oct-18 08:50 41.962464 -100.610997 231 4725ft 152kts
20-Oct-18 08:51 41.936097 -100.657418 242 6959ft 161kts
20-Oct-18 08:52 41.915189 -100.708450 257 9107ft 157kts
20-Oct-18 08:53 41.898056 -100.757813 256 10832ft 162kts
20-Oct-18 08:54 41.878551 -100.814008 257 12610ft 170kts
20-Oct-18 08:55 41.858267 -100.872435 257 14355ft 177kts
20-Oct-18 08:56 41.837259 -100.932818 257 15984ft 181kts
20-Oct-18 08:57 41.815851 -100.994216 258 17451ft 184kts
20-Oct-18 08:58 41.794028 -101.056695 257 18783ft 187kts
20-Oct-18 08:59 41.771853 -101.120017 257 19998ft 189kts
20-Oct-18 09:00 41.749413 -101.183955 256 21096ft 191kts
20-Oct-18 09:01 41.726549 -101.248943 255 22085ft 194kts
20-Oct-18 09:02 41.703343 -101.314738 255 22969ft 197kts
20-Oct-18 09:03 41.679807 -101.381299 254 23786ft 199kts
20-Oct-18 09:04 41.655859 -101.448885 254 24491ft 203kts
20-Oct-18 09:05 41.631466 -101.517557 254 25134ft 206kts
20-Oct-18 09:06 41.606591 -101.587419 254 25840ft 210kts
20-Oct-18 09:07 41.581500 -101.657698 253 26469ft 214kts
20-Oct-18 09:08 41.554323 -101.733779 252 26522ft 240kts
20-Oct-18 09:09 41.524566 -101.816613 251 26517ft 254kts
20-Oct-18 09:10 41.493649 -101.902438 251 26516ft 258kts
20-Oct-18 09:11 41.462341 -101.989146 251 26514ft 260kts
20-Oct-18 09:12 41.430925 -102.075895 251 26511ft 260kts
20-Oct-18 09:13 41.399417 -102.162638 251 26514ft 261kts
20-Oct-18 09:14 41.367730 -102.249615 251 26515ft 261kts
20-Oct-18 09:15 41.335896 -102.336721 251 26516ft 262kts
20-Oct-18 09:16 41.303823 -102.424206 251 26514ft 263kts
20-Oct-18 09:17 41.271745 -102.511449 251 26514ft 264kts
20-Oct-18 09:18 41.239499 -102.599033 250 26514ft 264kts
20-Oct-18 09:19 41.207510 -102.685360 249 26519ft 263kts
20-Oct-18 09:20 41.175113 -102.772771 248 26510ft 264kts
20-Oct-18 09:21 41.142452 -102.860438 249 26516ft 266kts
20-Oct-18 09:22 41.109645 -102.948306 248 26518ft 266kts
20-Oct-18 09:23 41.065131 -103.027722 231 26517ft 274kts
20-Oct-18 09:24 41.012535 -103.100920 231 26522ft 274kts
20-Oct-18 09:25 40.960058 -103.174188 231 26517ft 274kts
20-Oct-18 09:26 40.907501 -103.247408 231 26517ft 275kts
20-Oct-18 09:27 40.855821 -103.319244 230 26513ft 275kts
20-Oct-18 09:28 40.803275 -103.392089 230 26512ft 275kts
20-Oct-18 09:29 40.750373 -103.465247 230 26516ft 275kts
20-Oct-18 09:30 40.697784 -103.537820 230 26501ft 274kts
20-Oct-18 09:31 40.645369 -103.609948 230 26504ft 272kts
20-Oct-18 09:32 40.593935 -103.680568 229 26522ft 272kts
20-Oct-18 09:33 40.541622 -103.752225 229 26523ft 272kts
20-Oct-18 09:34 40.489539 -103.823426 228 26438ft 279kts
20-Oct-18 09:35 40.434693 -103.898155 228 25653ft 286kts
20-Oct-18 09:36 40.379434 -103.973286 228 24863ft 287kts
20-Oct-18 09:37 40.324381 -104.047932 229 24466ft 281kts
20-Oct-18 09:38 40.270455 -104.120910 229 24315ft 281kts
20-Oct-18 09:39 40.214951 -104.195820 228 23535ft 290kts
20-Oct-18 09:40 40.158269 -104.272162 227 22615ft 297kts
20-Oct-18 09:41 40.100506 -104.349653 227 21626ft 300kts
20-Oct-18 09:42 40.042215 -104.427706 227 20637ft 301kts
20-Oct-18 09:43 39.983757 -104.505780 227 19647ft 301kts
20-Oct-18 09:44 39.925583 -104.583275 227 18664ft 300kts
20-Oct-18 09:45 39.860363 -104.637294 176 17621ft 272kts
20-Oct-18 09:46 39.788039 -104.623464 178 16618ft 262kts
20-Oct-18 09:47 39.715820 -104.621460 179 15618ft 259kts
20-Oct-18 09:48 39.645352 -104.633619 192 14611ft 255kts
20-Oct-18 09:49 39.581927 -104.651289 192 13663ft 238kts
20-Oct-18 09:50 39.519902 -104.668627 192 12648ft 222kts
20-Oct-18 09:51 39.460140 -104.685311 192 11646ft 219kts
20-Oct-18 09:52 39.401280 -104.701701 192 10642ft 214kts
20-Oct-18 09:53 39.344776 -104.717399 192 10048ft 192kts
20-Oct-18 09:54 39.296604 -104.730775 192 10057ft 171kts
20-Oct-18 09:55 39.248961 -104.743995 192 10057ft 178kts
20-Oct-18 09:56 39.199827 -104.757616 191 10057ft 183kts
20-Oct-18 09:57 39.149907 -104.771355 190 10075ft 184kts
20-Oct-18 09:58 39.099842 -104.783660 188 9380ft 189kts
20-Oct-18 09:59 39.048650 -104.794119 191 8900ft 179kts
20-Oct-18 10:00 39.007558 -104.827564 221 8494ft 172kts
20-Oct-18 10:01 38.965300 -104.846194 173 8077ft 169kts
20-Oct-18 10:02 38.926842 -104.836744 157 7474ft 119kts
20-Oct-18 10:03 38.928380 -104.809575 11 7192ft 111kts
20-Oct-18 10:04 38.964735 -104.815716 348 6744ft 101kts
20-Oct-18 10:05 38.976248 -104.818413 348 6577ft 9kts
20-Oct-18 10:06 38.978982 -104.818303 75 6576ft 0kts
20-Oct-18 10:07 38.979069 -104.817049 107 6576ft 10kts
20-Oct-18 10:08 38.976897 -104.815813 168 6576ft 11kts
20-Oct-18 10:09 38.973232 -104.814855 107 6577ft 10kts
20-Oct-18 10:10 38.973076 -104.814398 170 6576ft 0kts
20-Oct-18 10:11 38.973076 -104.814398 170 6576ft 0kts
20-Oct-18 10:12 38.973076 -104.814398 170 6576ft 0kts
20-Oct-18 10:13 38.973076 -104.814398 170 6576ft 0kts
20-Oct-18 10:14 38.973076 -104.814398 170 6576ft 0kts
20-Oct-18 10:15 38.973076 -104.814398 170 6576ft 0kts
20-Oct-18 10:16 38.973076 -104.814398 170 6576ft 0kts
20-Oct-18 10:17 38.973076 -104.814398 170 6576ft 0kts
20-Oct-18 10:18 38.973076 -104.814398 170 6576ft 0kts
20-Oct-18 10:19 38.973076 -104.814398 170 6576ft 0kts

Navigation Log

Ident Type
Flight plan parsing failed, navigation log unavailable